Time;durP1;ratioP1;P1;durP2;ratioP2;P2;SDS_P1;SDS_P2;PMS_P1;PMS_P2;Temp;Humidity;BMP_temperature;BMP_pressure;BME280_temperature;BME280_humidity;BME280_pressure;Samples;Min_cycle;Max_cycle;Signal;HPM_P1;HPM_P2
2021/11/30 00:02:24;;;;;;;4.43;4.03;;;;;;;;;;5054716;28;20206;-74
2021/11/30 00:04:51;;;;;;;5.82;3.55;;;;;;;;;;5056399;28;20659;-75
2021/11/30 00:07:19;;;;;;;9.07;4.80;;;;;;;;;;5063107;28;20198;-74
2021/11/30 00:12:30;;;;;;;6.53;4.60;;;;;;;;;;5061281;28;20263;-76
2021/11/30 00:14:58;;;;;;;4.57;4.15;;;;;;;;;;5065998;28;20206;-76
2021/11/30 00:17:26;;;;;;;3.60;3.10;;;;;;;;;;5077160;28;20225;-77
2021/11/30 00:19:54;;;;;;;5.75;3.80;;;;;;;;;;5068543;28;20186;-76
2021/11/30 00:22:22;;;;;;;6.03;4.22;;;;;;;;;;5063666;28;20206;-76
2021/11/30 00:24:49;;;;;;;5.43;3.83;;;;;;;;;;5061768;28;20206;-77
2021/11/30 00:27:17;;;;;;;6.47;3.72;;;;;;;;;;5059009;28;20202;-77
2021/11/30 00:29:44;;;;;;;7.28;4.63;;;;;;;;;;5063334;28;20198;-77
2021/11/30 00:32:11;;;;;;;6.05;3.92;;;;;;;;;;5069873;28;20221;-77
2021/11/30 00:34:40;;;;;;;5.00;3.63;;;;;;;;;;5058829;28;20209;-77
2021/11/30 00:37:07;;;;;;;6.55;3.60;;;;;;;;;;5072996;28;20218;-77
2021/11/30 00:39:34;;;;;;;5.05;3.75;;;;;;;;;;5074893;28;20202;-77
2021/11/30 00:42:02;;;;;;;5.22;3.90;;;;;;;;;;5065413;28;20270;-77
2021/11/30 00:44:33;;;;;;;5.05;3.60;;;;;;;;;;5064863;28;20266;-77
2021/11/30 00:47:00;;;;;;;6.47;4.22;;;;;;;;;;5072577;28;20201;-76
2021/11/30 00:49:28;;;;;;;7.78;4.88;;;;;;;;;;5077248;28;20198;-76
2021/11/30 00:51:57;;;;;;;15.73;4.80;;;;;;;;;;5067955;28;20199;-75
2021/11/30 00:54:24;;;;;;;11.30;4.78;;;;;;;;;;5068019;28;20217;-77
2021/11/30 00:56:52;;;;;;;6.97;4.22;;;;;;;;;;5079067;28;20225;-77
2021/11/30 00:59:19;;;;;;;7.63;3.65;;;;;;;;;;5072409;28;20220;-77
2021/11/30 01:01:46;;;;;;;5.47;4.68;;;;;;;;;;5080364;28;20200;-77
2021/11/30 01:04:13;;;;;;;6.50;4.45;;;;;;;;;;5090551;28;20198;-77
2021/11/30 01:06:41;;;;;;;8.63;5.32;;;;;;;;;;5078746;28;20638;-77
2021/11/30 01:09:10;;;;;;;5.97;5.38;;;;;;;;;;5084371;28;20190;-77
2021/11/30 01:11:38;;;;;;;9.32;5.85;;;;;;;;;;5077791;28;20210;-77
2021/11/30 01:14:05;;;;;;;5.35;4.47;;;;;;;;;;5082687;28;20201;-77
2021/11/30 01:16:33;;;;;;;5.70;4.53;;;;;;;;;;5077253;28;20210;-77
2021/11/30 01:19:00;;;;;;;8.10;4.55;;;;;;;;;;5078569;28;20263;-76
2021/11/30 01:21:27;;;;;;;6.28;4.90;;;;;;;;;;5079884;28;20205;-76
2021/11/30 01:23:54;;;;;;;10.65;5.50;;;;;;;;;;5083245;28;20201;-76
2021/11/30 01:26:23;;;;;;;7.53;4.47;;;;;;;;;;5070585;28;20195;-76
2021/11/30 01:28:50;;;;;;;5.43;4.55;;;;;;;;;;5072216;28;20187;-76
2021/11/30 01:31:17;;;;;;;7.70;5.15;;;;;;;;;;5074256;28;20199;-76
2021/11/30 01:33:44;;;;;;;7.57;4.88;;;;;;;;;;5079086;28;20198;-76
2021/11/30 01:36:11;;;;;;;6.75;4.95;;;;;;;;;;5073643;28;20195;-76
2021/11/30 01:38:38;;;;;;;10.30;5.00;;;;;;;;;;5061767;28;20195;-75
2021/11/30 01:41:07;;;;;;;8.38;4.70;;;;;;;;;;5069615;28;20203;-76
2021/11/30 01:43:40;;;;;;;11.70;5.40;;;;;;;;;;5068063;28;20308;-75
2021/11/30 01:46:10;;;;;;;8.45;5.70;;;;;;;;;;5067349;28;20649;-75
2021/11/30 01:51:23;;;;;;;7.53;5.15;;;;;;;;;;5070275;28;20292;-76
2021/11/30 01:53:50;;;;;;;10.00;5.72;;;;;;;;;;5062392;28;20198;-76
2021/11/30 01:56:18;;;;;;;10.27;5.47;;;;;;;;;;5076709;28;20244;-76
2021/11/30 01:58:47;;;;;;;12.73;6.05;;;;;;;;;;5084255;28;20196;-76
2021/11/30 02:01:14;;;;;;;11.35;6.45;;;;;;;;;;5078861;28;20202;-76
2021/11/30 02:03:41;;;;;;;9.95;4.90;;;;;;;;;;5071163;28;20200;-76
2021/11/30 02:06:08;;;;;;;8.07;4.85;;;;;;;;;;5068851;28;20210;-76
2021/11/30 02:08:35;;;;;;;8.55;4.85;;;;;;;;;;5069386;28;20191;-76
2021/11/30 02:11:03;;;;;;;7.30;4.85;;;;;;;;;;5065152;28;20713;-76
2021/11/30 02:13:31;;;;;;;6.07;4.55;;;;;;;;;;5080852;28;20612;-76
2021/11/30 02:16:01;;;;;;;8.02;4.20;;;;;;;;;;5061452;28;20606;-76
2021/11/30 02:18:28;;;;;;;6.95;4.60;;;;;;;;;;5065224;28;20765;-76
2021/11/30 02:20:58;;;;;;;6.00;4.20;;;;;;;;;;5070771;28;20206;-76
2021/11/30 02:23:37;;;;;;;8.88;4.63;;;;;;;;;;5069278;28;20190;-76
2021/11/30 02:26:09;;;;;;;6.50;4.65;;;;;;;;;;5065549;28;20233;-76
2021/11/30 02:28:36;;;;;;;5.82;4.82;;;;;;;;;;5081045;28;20221;-76
2021/11/30 02:31:03;;;;;;;6.43;4.35;;;;;;;;;;5079126;28;20195;-76
2021/11/30 02:33:31;;;;;;;4.60;4.20;;;;;;;;;;5068287;28;20546;-76
2021/11/30 02:35:59;;;;;;;5.78;4.72;;;;;;;;;;5070144;28;20190;-76
2021/11/30 02:38:26;;;;;;;7.93;4.93;;;;;;;;;;5078122;28;20576;-75
2021/11/30 02:40:53;;;;;;;5.93;4.93;;;;;;;;;;5065692;28;20202;-75
2021/11/30 02:43:20;;;;;;;5.78;4.35;;;;;;;;;;5063413;28;20214;-76
2021/11/30 02:45:47;;;;;;;5.47;4.80;;;;;;;;;;5066962;28;20267;-75
2021/11/30 02:48:15;;;;;;;6.32;4.57;;;;;;;;;;5070369;28;20611;-75
2021/11/30 02:50:43;;;;;;;6.68;4.35;;;;;;;;;;5061000;28;20195;-76
2021/11/30 02:53:16;;;;;;;7.43;5.05;;;;;;;;;;5063035;28;20225;-76
2021/11/30 02:55:44;;;;;;;11.98;6.05;;;;;;;;;;5066886;28;20191;-76
2021/11/30 02:58:11;;;;;;;7.97;4.97;;;;;;;;;;5072038;28;20615;-76
2021/11/30 03:00:38;;;;;;;7.70;4.80;;;;;;;;;;5060746;28;20267;-76
2021/11/30 03:03:06;;;;;;;7.72;5.13;;;;;;;;;;5058421;28;20286;-76
2021/11/30 03:05:33;;;;;;;6.20;5.40;;;;;;;;;;5063284;28;20194;-76
2021/11/30 03:08:00;;;;;;;7.30;4.93;;;;;;;;;;5071354;28;20216;-76
2021/11/30 03:10:29;;;;;;;5.90;4.22;;;;;;;;;;5062828;28;20191;-76
2021/11/30 03:12:56;;;;;;;5.10;4.22;;;;;;;;;;5064503;28;20200;-76
2021/11/30 03:15:24;;;;;;;7.80;4.30;;;;;;;;;;5063077;28;20654;-76
2021/11/30 03:17:52;;;;;;;5.13;4.05;;;;;;;;;;5063121;28;20215;-75
2021/11/30 03:20:19;;;;;;;6.70;4.85;;;;;;;;;;5060167;28;20202;-75
2021/11/30 03:22:47;;;;;;;8.05;4.68;;;;;;;;;;5055895;28;20198;-76
2021/11/30 03:25:15;;;;;;;6.07;4.68;;;;;;;;;;5057132;28;20194;-76
2021/11/30 03:27:45;;;;;;;6.82;4.40;;;;;;;;;;5062669;28;20245;-75
2021/11/30 03:30:12;;;;;;;13.35;4.50;;;;;;;;;;5065674;28;20191;-76
2021/11/30 03:35:25;;;;;;;6.35;3.65;;;;;;;;;;5063336;28;20283;-76
2021/11/30 03:37:52;;;;;;;6.07;4.35;;;;;;;;;;5063370;28;20214;-76
2021/11/30 03:40:19;;;;;;;5.82;4.15;;;;;;;;;;5053959;28;20202;-76
2021/11/30 03:42:47;;;;;;;5.20;4.18;;;;;;;;;;5061892;28;20199;-76
2021/11/30 03:45:15;;;;;;;4.82;4.07;;;;;;;;;;5065052;28;20264;-75
2021/11/30 03:47:43;;;;;;;9.90;5.10;;;;;;;;;;5059265;28;20692;-76
2021/11/30 03:50:10;;;;;;;3.78;3.33;;;;;;;;;;5062245;28;20603;-75
2021/11/30 03:52:37;;;;;;;6.22;3.60;;;;;;;;;;5061137;28;20684;-75
2021/11/30 03:55:04;;;;;;;9.48;5.70;;;;;;;;;;5062851;28;20245;-78
2021/11/30 03:57:31;;;;;;;5.35;3.95;;;;;;;;;;5062800;28;20225;-77
2021/11/30 04:00:04;;;;;;;6.60;4.20;;;;;;;;;;5063173;28;20215;-79
2021/11/30 04:02:32;;;;;;;7.78;3.97;;;;;;;;;;5061360;28;20213;-77
2021/11/30 04:04:59;;;;;;;6.55;3.25;;;;;;;;;;5056180;28;20241;-79
2021/11/30 04:07:26;;;;;;;6.63;4.18;;;;;;;;;;5062322;28;20199;-80
2021/11/30 04:09:53;;;;;;;3.88;3.15;;;;;;;;;;5062906;28;20195;-79
2021/11/30 04:12:20;;;;;;;5.90;3.70;;;;;;;;;;5053680;28;20613;-79
2021/11/30 04:14:47;;;;;;;4.97;3.67;;;;;;;;;;5062181;28;20649;-79
2021/11/30 04:17:16;;;;;;;5.45;3.70;;;;;;;;;;5061543;28;20194;-78
2021/11/30 04:19:43;;;;;;;6.10;3.08;;;;;;;;;;5063264;28;20202;-79
2021/11/30 04:22:10;;;;;;;3.40;3.10;;;;;;;;;;5059844;28;20195;-77
2021/11/30 04:24:39;;;;;;;6.43;3.55;;;;;;;;;;5056647;28;20244;-78
2021/11/30 04:27:06;;;;;;;5.15;2.83;;;;;;;;;;5059873;28;20256;-79
2021/11/30 04:29:35;;;;;;;4.05;2.95;;;;;;;;;;5062385;28;20645;-78
2021/11/30 04:32:02;;;;;;;6.38;4.30;;;;;;;;;;5059274;28;20203;-78
2021/11/30 04:34:31;;;;;;;4.88;3.60;;;;;;;;;;5057753;28;20737;-78
2021/11/30 04:36:58;;;;;;;4.32;2.75;;;;;;;;;;5054982;28;20476;-79
2021/11/30 04:39:25;;;;;;;3.58;3.10;;;;;;;;;;5053309;28;20305;-79
2021/11/30 04:41:52;;;;;;;2.75;2.35;;;;;;;;;;5054319;28;20610;-79
2021/11/30 04:44:20;;;;;;;3.03;2.72;;;;;;;;;;5052552;28;20195;-78
2021/11/30 04:46:53;;;;;;;3.97;2.70;;;;;;;;;;5058602;28;20662;-79
2021/11/30 04:49:36;;;;;;;3.50;2.63;;;;;;;;;;5061311;28;20617;-79
2021/11/30 04:52:06;;;;;;;3.90;2.40;;;;;;;;;;5063989;28;20283;-79
2021/11/30 04:54:33;;;;;;;2.40;2.05;;;;;;;;;;5057636;28;20198;-78
2021/11/30 04:57:00;;;;;;;2.92;2.13;;;;;;;;;;5053679;28;20681;-78
2021/11/30 04:59:27;;;;;;;2.63;2.42;;;;;;;;;;5063794;28;20604;-78
2021/11/30 05:01:56;;;;;;;3.03;2.72;;;;;;;;;;5051523;28;20209;-78
2021/11/30 05:04:23;;;;;;;2.88;2.58;;;;;;;;;;5054581;28;20202;-78
2021/11/30 05:06:50;;;;;;;2.20;1.75;;;;;;;;;;5058802;28;20194;-80
2021/11/30 05:09:18;;;;;;;3.45;2.03;;;;;;;;;;5061960;28;20198;-79
2021/11/30 05:11:46;;;;;;;3.05;2.10;;;;;;;;;;5065102;28;20198;-78
2021/11/30 05:14:13;;;;;;;3.20;2.20;;;;;;;;;;5070058;28;20602;-78
2021/11/30 05:16:40;;;;;;;3.50;1.67;;;;;;;;;;5055984;28;20206;-78
2021/11/30 05:19:07;;;;;;;5.07;2.00;;;;;;;;;;5064208;28;20219;-79
2021/11/30 05:21:34;;;;;;;2.10;1.55;;;;;;;;;;5056505;28;20203;-79
2021/11/30 05:24:05;;;;;;;2.53;2.15;;;;;;;;;;5055402;28;20190;-79
2021/11/30 05:26:35;;;;;;;3.85;2.28;;;;;;;;;;5062233;28;20203;-79
2021/11/30 05:29:02;;;;;;;1.75;1.60;;;;;;;;;;5062342;28;20190;-79
2021/11/30 05:31:30;;;;;;;2.35;1.70;;;;;;;;;;5054938;28;20205;-79
2021/11/30 05:33:59;;;;;;;1.63;1.35;;;;;;;;;;5060007;28;20199;-79
2021/11/30 05:36:26;;;;;;;2.17;1.95;;;;;;;;;;5057214;28;20198;-77
2021/11/30 05:38:53;;;;;;;3.15;2.88;;;;;;;;;;5058281;28;20214;-78
2021/11/30 05:41:20;;;;;;;3.17;1.95;;;;;;;;;;5063586;28;20222;-78
2021/11/30 05:43:49;;;;;;;3.58;2.50;;;;;;;;;;5063500;28;20195;-78
2021/11/30 05:46:16;;;;;;;2.17;1.98;;;;;;;;;;5056304;28;20195;-78
2021/11/30 05:48:43;;;;;;;1.88;1.77;;;;;;;;;;5058620;28;20190;-78
2021/11/30 05:51:10;;;;;;;2.45;2.00;;;;;;;;;;5064048;28;20560;-78
2021/11/30 05:53:37;;;;;;;1.65;1.30;;;;;;;;;;5054542;28;20199;-79
2021/11/30 05:56:08;;;;;;;2.67;2.47;;;;;;;;;;5052226;28;20302;-79
2021/11/30 05:58:37;;;;;;;3.20;1.60;;;;;;;;;;5061232;28;20234;-79
2021/11/30 06:01:10;;;;;;;2.28;2.08;;;;;;;;;;5064409;28;20272;-78
2021/11/30 06:03:56;;;;;;;3.75;3.45;;;;;;;;;;5059113;28;20261;-79
2021/11/30 06:06:23;;;;;;;2.70;2.50;;;;;;;;;;5060814;28;20208;-80
2021/11/30 06:08:50;;;;;;;2.63;2.05;;;;;;;;;;5065195;28;20198;-77
2021/11/30 06:11:17;;;;;;;2.80;2.22;;;;;;;;;;5056076;28;20604;-79
2021/11/30 06:13:44;;;;;;;2.15;1.95;;;;;;;;;;5057708;28;20249;-78
2021/11/30 06:16:13;;;;;;;2.40;2.20;;;;;;;;;;5065782;28;20203;-78
2021/11/30 06:18:40;;;;;;;2.20;2.00;;;;;;;;;;5059412;28;20210;-77
2021/11/30 06:21:08;;;;;;;2.20;2.00;;;;;;;;;;5051434;28;20201;-78
2021/11/30 06:23:35;;;;;;;2.38;2.20;;;;;;;;;;5052637;28;20238;-78
2021/11/30 06:26:02;;;;;;;1.73;1.60;;;;;;;;;;5061991;28;20199;-84
2021/11/30 06:28:29;;;;;;;2.45;2.25;;;;;;;;;;5071184;28;20187;-81
2021/11/30 06:30:56;;;;;;;2.55;2.35;;;;;;;;;;5082226;28;20199;-83
2021/11/30 06:33:25;;;;;;;2.72;2.53;;;;;;;;;;5079857;28;20194;-81
2021/11/30 06:35:52;;;;;;;2.40;1.92;;;;;;;;;;5079908;28;20206;-82
2021/11/30 06:38:19;;;;;;;2.85;2.38;;;;;;;;;;5077170;28;20313;-79
2021/11/30 06:40:46;;;;;;;3.00;2.67;;;;;;;;;;5074802;28;20179;-78
2021/11/30 06:43:13;;;;;;;1.75;1.65;;;;;;;;;;5071117;28;20199;-81
2021/11/30 06:45:40;;;;;;;3.25;2.50;;;;;;;;;;5058750;28;20230;-81
2021/11/30 06:48:08;;;;;;;2.30;2.10;;;;;;;;;;5063492;28;20199;-82
2021/11/30 06:50:36;;;;;;;1.85;1.75;;;;;;;;;;5069587;28;20194;-80
2021/11/30 06:53:03;;;;;;;2.22;2.03;;;;;;;;;;5070820;28;20201;-81
2021/11/30 06:55:30;;;;;;;2.38;2.17;;;;;;;;;;5063131;28;20191;-79
2021/11/30 06:57:58;;;;;;;2.22;2.03;;;;;;;;;;5062463;28;20218;-80
2021/11/30 07:00:25;;;;;;;2.53;2.33;;;;;;;;;;5067050;28;20309;-79
2021/11/30 07:02:52;;;;;;;3.05;2.08;;;;;;;;;;5064555;28;20570;-78
2021/11/30 07:05:22;;;;;;;2.03;1.92;;;;;;;;;;5067798;28;20205;-78
2021/11/30 07:08:01;;;;;;;2.42;2.22;;;;;;;;;;5060048;28;20206;-78
2021/11/30 07:10:38;;;;;;;2.15;1.95;;;;;;;;;;5061511;28;20202;-78
2021/11/30 07:15:51;;;;;;;2.30;2.10;;;;;;;;;;5065417;28;20287;-78
2021/11/30 07:18:18;;;;;;;3.10;2.38;;;;;;;;;;5064097;28;20229;-78
2021/11/30 07:20:45;;;;;;;2.75;2.55;;;;;;;;;;5059527;28;20194;-80
2021/11/30 07:23:14;;;;;;;1.77;1.67;;;;;;;;;;5065955;28;20190;-78
2021/11/30 07:25:41;;;;;;;2.38;2.17;;;;;;;;;;5064856;28;20196;-80
2021/11/30 07:28:08;;;;;;;2.25;2.05;;;;;;;;;;5059973;28;20584;-80
2021/11/30 07:30:35;;;;;;;2.05;1.85;;;;;;;;;;5060858;28;20194;-79
2021/11/30 07:33:02;;;;;;;2.15;2.00;;;;;;;;;;5054269;28;20209;-79
2021/11/30 07:35:30;;;;;;;3.15;2.33;;;;;;;;;;5063406;28;20205;-80
2021/11/30 07:37:57;;;;;;;2.55;2.35;;;;;;;;;;5069736;28;20297;-80
2021/11/30 07:40:25;;;;;;;3.35;3.05;;;;;;;;;;5069412;28;20685;-79
2021/11/30 07:42:52;;;;;;;3.10;2.80;;;;;;;;;;5064470;28;20554;-80
2021/11/30 07:45:19;;;;;;;2.53;2.33;;;;;;;;;;5067388;28;20637;-80
2021/11/30 07:47:47;;;;;;;4.15;3.85;;;;;;;;;;5064476;28;20661;-79
2021/11/30 07:50:14;;;;;;;4.25;3.85;;;;;;;;;;5058042;28;20588;-80
2021/11/30 07:52:43;;;;;;;5.32;4.88;;;;;;;;;;5065094;28;22535;-81
2021/11/30 07:55:11;;;;;;;9.18;5.18;;;;;;;;;;5062211;28;20191;-80
2021/11/30 07:57:39;;;;;;;5.68;5.18;;;;;;;;;;5058751;28;20206;-81
2021/11/30 08:00:07;;;;;;;5.88;5.15;;;;;;;;;;5059964;28;20229;-81
2021/11/30 08:02:35;;;;;;;5.45;5.03;;;;;;;;;;5055507;28;20202;-81
2021/11/30 08:05:02;;;;;;;7.47;6.78;;;;;;;;;;5059917;28;20285;-82
2021/11/30 08:07:29;;;;;;;6.80;6.15;;;;;;;;;;5053591;28;20685;-81
2021/11/30 08:09:56;;;;;;;8.05;7.25;;;;;;;;;;5060437;28;20194;-81
2021/11/30 08:12:23;;;;;;;6.72;6.10;;;;;;;;;;5070100;28;20256;-81
2021/11/30 08:14:51;;;;;;;7.10;6.10;;;;;;;;;;5061054;28;20199;-81
2021/11/30 08:17:20;;;;;;;6.82;6.13;;;;;;;;;;5055525;28;20693;-81
2021/11/30 08:19:47;;;;;;;5.88;5.28;;;;;;;;;;5061586;28;20218;-81
2021/11/30 08:22:15;;;;;;;6.93;6.22;;;;;;;;;;5053481;28;20199;-80
2021/11/30 08:24:43;;;;;;;5.93;5.43;;;;;;;;;;5054991;28;20191;-81
2021/11/30 08:27:10;;;;;;;5.60;5.10;;;;;;;;;;5061731;28;20210;-79
2021/11/30 08:29:39;;;;;;;6.70;5.68;;;;;;;;;;5064701;28;20190;-80
2021/11/30 08:32:09;;;;;;;6.03;5.47;;;;;;;;;;5063581;28;20285;-80
2021/11/30 08:34:36;;;;;;;5.85;5.25;;;;;;;;;;5064937;28;20229;-80
2021/11/30 08:37:04;;;;;;;5.35;4.80;;;;;;;;;;5070299;28;20225;-80
2021/11/30 08:39:31;;;;;;;6.30;5.35;;;;;;;;;;5058852;28;20218;-83
2021/11/30 08:41:58;;;;;;;5.45;4.85;;;;;;;;;;5069999;28;20279;-81
2021/11/30 08:44:26;;;;;;;5.88;5.38;;;;;;;;;;5060949;28;20658;-81
2021/11/30 08:46:53;;;;;;;6.15;5.55;;;;;;;;;;5065815;28;20198;-81
2021/11/30 08:49:22;;;;;;;6.15;4.93;;;;;;;;;;5061224;28;20217;-80
2021/11/30 08:51:49;;;;;;;5.20;4.80;;;;;;;;;;5055820;28;20256;-80
2021/11/30 08:54:16;;;;;;;7.30;5.60;;;;;;;;;;5061670;28;20202;-80
2021/11/30 08:56:43;;;;;;;6.00;5.47;;;;;;;;;;5052256;28;20211;-80
2021/11/30 08:59:11;;;;;;;4.53;4.18;;;;;;;;;;5054002;28;20235;-79
2021/11/30 09:01:39;;;;;;;4.82;4.43;;;;;;;;;;5061370;28;20202;-80
2021/11/30 09:04:06;;;;;;;4.28;3.97;;;;;;;;;;5057016;28;20202;-81
2021/11/30 09:06:34;;;;;;;6.38;4.68;;;;;;;;;;5060495;28;20195;-80
2021/11/30 09:09:02;;;;;;;4.50;4.10;;;;;;;;;;5059517;28;20224;-80
2021/11/30 09:11:30;;;;;;;4.70;4.38;;;;;;;;;;5068594;28;20202;-81
2021/11/30 09:13:57;;;;;;;4.78;4.38;;;;;;;;;;5056686;28;20198;-80
2021/11/30 09:16:24;;;;;;;4.75;4.35;;;;;;;;;;5058793;28;20198;-81
2021/11/30 09:18:52;;;;;;;4.78;4.38;;;;;;;;;;5059004;28;20197;-81
2021/11/30 09:21:19;;;;;;;5.28;4.78;;;;;;;;;;5060604;28;20433;-82
2021/11/30 09:23:47;;;;;;;4.57;4.18;;;;;;;;;;5058315;28;20201;-82
2021/11/30 09:26:15;;;;;;;4.90;4.47;;;;;;;;;;5055871;28;20209;-82
2021/11/30 09:28:42;;;;;;;3.72;3.40;;;;;;;;;;5053688;28;20187;-83
2021/11/30 09:31:09;;;;;;;5.15;4.70;;;;;;;;;;5062898;28;20194;-80
2021/11/30 09:33:39;;;;;;;5.22;4.72;;;;;;;;;;5066407;28;20561;-81
2021/11/30 09:36:06;;;;;;;3.80;3.50;;;;;;;;;;5065979;28;20222;-84
2021/11/30 09:38:33;;;;;;;5.95;5.40;;;;;;;;;;5065217;28;20554;-80
2021/11/30 09:41:02;;;;;;;4.72;4.32;;;;;;;;;;5061015;28;20284;-81
2021/11/30 09:43:38;;;;;;;5.75;3.72;;;;;;;;;;5060859;28;20195;-82
2021/11/30 09:46:05;;;;;;;5.07;4.53;;;;;;;;;;5063031;28;20194;-79
2021/11/30 09:48:34;;;;;;;4.82;4.43;;;;;;;;;;5056221;28;20201;-81
2021/11/30 09:51:02;;;;;;;4.18;3.78;;;;;;;;;;5051596;28;20186;-83
2021/11/30 09:53:30;;;;;;;5.45;4.13;;;;;;;;;;5064413;28;20198;-81
2021/11/30 09:55:58;;;;;;;3.95;3.65;;;;;;;;;;5063273;28;20194;-80
2021/11/30 09:58:27;;;;;;;10.40;4.18;;;;;;;;;;5070531;28;20265;-82
2021/11/30 10:00:55;;;;;;;4.82;4.43;;;;;;;;;;5059741;28;20218;-79
2021/11/30 10:03:23;;;;;;;4.57;4.25;;;;;;;;;;5063498;28;20198;-80
2021/11/30 10:05:50;;;;;;;5.30;4.32;;;;;;;;;;5063661;28;20201;-79
2021/11/30 10:08:28;;;;;;;4.55;4.15;;;;;;;;;;5054741;28;20686;-83
2021/11/30 10:10:55;;;;;;;3.92;3.53;;;;;;;;;;5051977;28;20198;-79
2021/11/30 10:13:22;;;;;;;4.63;4.20;;;;;;;;;;5057814;28;20229;-79
2021/11/30 10:15:52;;;;;;;4.82;4.40;;;;;;;;;;5057897;28;20199;-79
2021/11/30 10:18:21;;;;;;;4.90;3.72;;;;;;;;;;5066335;28;20198;-82
2021/11/30 10:20:48;;;;;;;4.80;3.60;;;;;;;;;;5057037;28;20309;-80
2021/11/30 10:23:17;;;;;;;3.67;3.38;;;;;;;;;;5060248;28;20201;-82
2021/11/30 10:25:46;;;;;;;4.00;3.40;;;;;;;;;;5063241;28;20201;-83
2021/11/30 10:28:15;;;;;;;3.90;3.60;;;;;;;;;;5057373;28;20191;-82
2021/11/30 10:30:44;;;;;;;5.25;3.47;;;;;;;;;;5055244;28;20282;-83
2021/11/30 10:33:15;;;;;;;4.05;3.70;;;;;;;;;;5065588;28;20202;-83
2021/11/30 10:35:42;;;;;;;4.13;3.65;;;;;;;;;;5057861;28;20658;-83
2021/11/30 10:38:09;;;;;;;4.15;3.15;;;;;;;;;;5071710;28;20645;-82
2021/11/30 10:40:38;;;;;;;2.65;2.45;;;;;;;;;;5063066;28;20210;-80
2021/11/30 10:43:06;;;;;;;4.13;3.03;;;;;;;;;;5060646;28;20539;-81
2021/11/30 10:45:34;;;;;;;2.92;2.72;;;;;;;;;;5059704;28;20194;-82
2021/11/30 10:48:03;;;;;;;4.72;3.72;;;;;;;;;;5065274;28;20199;-81
2021/11/30 10:50:36;;;;;;;3.42;3.13;;;;;;;;;;5058808;28;20202;-82
2021/11/30 10:53:03;;;;;;;3.20;2.90;;;;;;;;;;5069044;28;20205;-81
2021/11/30 10:55:34;;;;;;;3.10;2.90;;;;;;;;;;5055539;28;20195;-81
2021/11/30 10:58:02;;;;;;;3.00;2.67;;;;;;;;;;5063516;28;20206;-81
2021/11/30 11:00:31;;;;;;;2.75;2.55;;;;;;;;;;5075760;28;20217;-82
2021/11/30 11:03:02;;;;;;;4.10;3.65;;;;;;;;;;5065444;28;20243;-80
2021/11/30 11:05:30;;;;;;;2.40;2.20;;;;;;;;;;5058763;28;20202;-82
2021/11/30 11:08:09;;;;;;;2.90;2.05;;;;;;;;;;5059035;28;20203;-81
2021/11/30 11:10:36;;;;;;;2.47;2.28;;;;;;;;;;5063673;28;20245;-81
2021/11/30 11:13:24;;;;;;;4.30;1.95;;;;;;;;;;5069788;28;20197;-82
2021/11/30 11:15:51;;;;;;;2.40;2.20;;;;;;;;;;5062386;28;20198;-83
2021/11/30 11:18:20;;;;;;;2.20;1.83;;;;;;;;;;5065980;28;20700;-82
2021/11/30 11:20:47;;;;;;;3.05;1.80;;;;;;;;;;5067270;28;20214;-82
2021/11/30 11:23:21;;;;;;;2.08;1.88;;;;;;;;;;5072116;28;20645;-82
2021/11/30 11:25:48;;;;;;;2.53;2.05;;;;;;;;;;5055966;28;20685;-82
2021/11/30 11:28:16;;;;;;;1.75;1.65;;;;;;;;;;5058946;28;20197;-81
2021/11/30 11:30:44;;;;;;;2.50;2.30;;;;;;;;;;5055967;28;20219;-81
2021/11/30 11:33:11;;;;;;;2.20;1.83;;;;;;;;;;5057058;28;20198;-81
2021/11/30 11:35:40;;;;;;;1.92;1.80;;;;;;;;;;5055122;28;20569;-81
2021/11/30 11:38:07;;;;;;;1.50;1.40;;;;;;;;;;5061141;28;20217;-82
2021/11/30 11:40:35;;;;;;;2.15;1.73;;;;;;;;;;5065038;28;20211;-82
2021/11/30 11:43:03;;;;;;;1.60;1.50;;;;;;;;;;5065207;28;20202;-81
2021/11/30 11:45:30;;;;;;;1.70;1.60;;;;;;;;;;5058615;28;20626;-81
2021/11/30 11:48:03;;;;;;;1.40;1.30;;;;;;;;;;5059891;28;20195;-83
2021/11/30 11:50:39;;;;;;;1.45;1.33;;;;;;;;;;5065346;28;20201;-81
2021/11/30 11:53:21;;;;;;;1.95;1.48;;;;;;;;;;5063595;28;20201;-81
2021/11/30 11:56:03;;;;;;;1.63;1.48;;;;;;;;;;5058500;28;20202;-81
2021/11/30 11:58:31;;;;;;;2.10;1.30;;;;;;;;;;5057124;28;20204;-80
2021/11/30 12:01:00;;;;;;;1.75;1.40;;;;;;;;;;5060904;28;20222;-82
2021/11/30 12:03:49;;;;;;;1.23;1.13;;;;;;;;;;5067641;28;20582;-80
2021/11/30 12:06:17;;;;;;;1.70;1.20;;;;;;;;;;5064175;28;20190;-81
2021/11/30 12:09:04;;;;;;;1.50;1.23;;;;;;;;;;5054170;28;20488;-81
2021/11/30 12:11:40;;;;;;;4.63;1.42;;;;;;;;;;5055008;28;20195;-81
2021/11/30 12:14:16;;;;;;;1.27;1.02;;;;;;;;;;5063720;28;20194;-81
2021/11/30 12:17:02;;;;;;;3.63;1.50;;;;;;;;;;5058397;28;20194;-81
2021/11/30 12:19:30;;;;;;;1.52;1.20;;;;;;;;;;5055040;28;20686;-81
2021/11/30 12:21:58;;;;;;;1.85;1.25;;;;;;;;;;5063466;28;20230;-80
2021/11/30 12:24:38;;;;;;;1.20;1.10;;;;;;;;;;5060211;28;20190;-81
2021/11/30 12:27:24;;;;;;;4.93;1.13;;;;;;;;;;5055702;28;20210;-80
2021/11/30 12:29:57;;;;;;;1.13;1.02;;;;;;;;;;5057991;28;20205;-80
2021/11/30 12:32:31;;;;;;;1.70;1.10;;;;;;;;;;5064390;28;20233;-80
2021/11/30 12:35:00;;;;;;;3.03;1.30;;;;;;;;;;5057681;28;20228;-81
2021/11/30 12:37:29;;;;;;;1.70;1.20;;;;;;;;;;5052416;28;20206;-81
2021/11/30 12:39:58;;;;;;;5.13;1.40;;;;;;;;;;5049837;28;20198;-80
2021/11/30 12:42:26;;;;;;;1.33;1.00;;;;;;;;;;5057958;28;20198;-80
2021/11/30 12:44:56;;;;;;;1.77;1.45;;;;;;;;;;5064239;28;20199;-80
2021/11/30 12:47:24;;;;;;;1.75;1.08;;;;;;;;;;5062674;28;20203;-80
2021/11/30 12:49:51;;;;;;;1.40;1.10;;;;;;;;;;5062307;28;20209;-80
2021/11/30 12:52:19;;;;;;;2.50;1.08;;;;;;;;;;5067010;28;20194;-80
2021/11/30 12:54:47;;;;;;;2.95;1.35;;;;;;;;;;5060092;28;20562;-80
2021/11/30 12:57:18;;;;;;;3.70;1.95;;;;;;;;;;5059867;28;20225;-80
2021/11/30 12:59:51;;;;;;;1.95;1.10;;;;;;;;;;5062460;28;20271;-81
2021/11/30 13:02:20;;;;;;;2.63;1.45;;;;;;;;;;5054496;28;20234;-80
2021/11/30 13:04:48;;;;;;;1.42;1.08;;;;;;;;;;5058545;28;20199;-80
2021/11/30 13:07:17;;;;;;;3.60;1.20;;;;;;;;;;5064113;28;20205;-80
2021/11/30 13:09:45;;;;;;;1.98;1.30;;;;;;;;;;5055913;28;20719;-81
2021/11/30 13:12:15;;;;;;;1.83;1.10;;;;;;;;;;5067142;28;20293;-81
2021/11/30 13:14:43;;;;;;;2.90;1.25;;;;;;;;;;5061501;28;20213;-80
2021/11/30 13:17:10;;;;;;;2.30;1.30;;;;;;;;;;5063868;28;20202;-81
2021/11/30 13:19:39;;;;;;;2.55;1.55;;;;;;;;;;5055505;28;20660;-80
2021/11/30 13:22:08;;;;;;;1.48;1.00;;;;;;;;;;5055003;28;20222;-80
2021/11/30 13:24:36;;;;;;;1.45;1.05;;;;;;;;;;5064164;28;20217;-81
2021/11/30 13:27:20;;;;;;;2.65;0.90;;;;;;;;;;5055588;28;20214;-80
2021/11/30 13:29:57;;;;;;;1.20;1.10;;;;;;;;;;5058604;28;20191;-81
2021/11/30 13:32:25;;;;;;;2.70;1.40;;;;;;;;;;5064187;28;20525;-81
2021/11/30 13:35:14;;;;;;;1.20;1.08;;;;;;;;;;5065397;28;20248;-81
2021/11/30 13:37:44;;;;;;;1.98;1.20;;;;;;;;;;5054147;28;20213;-80
2021/11/30 13:40:12;;;;;;;2.30;1.83;;;;;;;;;;5058275;28;20282;-81
2021/11/30 13:42:46;;;;;;;1.50;1.40;;;;;;;;;;5061504;28;20202;-81
2021/11/30 13:45:13;;;;;;;2.65;1.30;;;;;;;;;;5051952;28;20195;-81
2021/11/30 13:47:44;;;;;;;10.02;1.58;;;;;;;;;;5056419;28;20194;-82
2021/11/30 13:50:12;;;;;;;3.13;1.00;;;;;;;;;;5060327;28;20194;-82
2021/11/30 13:52:40;;;;;;;1.77;0.90;;;;;;;;;;5060579;28;20206;-82
2021/11/30 13:55:07;;;;;;;2.00;1.20;;;;;;;;;;5051885;28;20209;-81
2021/11/30 13:57:34;;;;;;;1.73;1.30;;;;;;;;;;5056495;28;20622;-81
2021/11/30 14:00:02;;;;;;;4.63;1.20;;;;;;;;;;5050675;28;20218;-81
2021/11/30 14:02:36;;;;;;;1.40;1.05;;;;;;;;;;5064684;28;20198;-82
2021/11/30 14:05:03;;;;;;;1.92;1.20;;;;;;;;;;5059442;28;20524;-81
2021/11/30 14:07:33;;;;;;;2.05;1.20;;;;;;;;;;5057979;28;20274;-81
2021/11/30 14:10:00;;;;;;;2.38;1.27;;;;;;;;;;5063077;28;20293;-80
2021/11/30 14:12:28;;;;;;;1.88;1.05;;;;;;;;;;5055458;28;20685;-81
2021/11/30 14:14:56;;;;;;;2.58;1.20;;;;;;;;;;5059556;28;20699;-81
2021/11/30 14:17:25;;;;;;;1.85;1.08;;;;;;;;;;5053736;28;20647;-82
2021/11/30 14:19:52;;;;;;;1.40;1.02;;;;;;;;;;5050863;28;20198;-81
2021/11/30 14:22:20;;;;;;;4.00;1.25;;;;;;;;;;5061311;28;20218;-84
2021/11/30 14:24:53;;;;;;;1.30;1.05;;;;;;;;;;5063706;28;20199;-81
2021/11/30 14:27:20;;;;;;;2.72;1.15;;;;;;;;;;5067721;28;20696;-80
2021/11/30 14:29:49;;;;;;;3.92;1.00;;;;;;;;;;5057734;28;20675;-80
2021/11/30 14:32:17;;;;;;;2.83;1.30;;;;;;;;;;5066653;28;20186;-81
2021/11/30 14:34:45;;;;;;;2.38;1.10;;;;;;;;;;5050931;28;20202;-80
2021/11/30 14:37:19;;;;;;;1.95;1.27;;;;;;;;;;5053985;28;20202;-80
2021/11/30 14:39:46;;;;;;;1.20;1.10;;;;;;;;;;5055323;28;20191;-81
2021/11/30 14:42:30;;;;;;;4.00;1.58;;;;;;;;;;5054272;28;20576;-81
2021/11/30 14:45:14;;;;;;;1.88;1.15;;;;;;;;;;5052388;28;20206;-81
2021/11/30 14:47:41;;;;;;;1.30;1.00;;;;;;;;;;5053766;28;20198;-81
2021/11/30 14:50:10;;;;;;;1.63;1.00;;;;;;;;;;5052411;28;20198;-82
2021/11/30 14:52:42;;;;;;;2.63;1.33;;;;;;;;;;5059718;28;20209;-83
2021/11/30 14:55:19;;;;;;;2.10;1.15;;;;;;;;;;5059045;28;20615;-83
2021/11/30 14:57:47;;;;;;;2.13;1.30;;;;;;;;;;5052695;28;20206;-82
2021/11/30 15:00:30;;;;;;;1.80;1.00;;;;;;;;;;5060070;28;20214;-81
2021/11/30 15:03:07;;;;;;;1.52;1.05;;;;;;;;;;5062306;28;20205;-83
2021/11/30 15:05:41;;;;;;;1.75;1.25;;;;;;;;;;5064369;28;20203;-82